sensor_id;sensor_type;location;lat;lon;timestamp;temperature;humidity
6270;DHT22;3168;51.684;6.954;2024-03-17T00:01:33;4.50;92.80
6270;DHT22;3168;51.684;6.954;2024-03-17T00:03:59;4.50;96.00
6270;DHT22;3168;51.684;6.954;2024-03-17T00:06:25;4.50;93.80
6270;DHT22;3168;51.684;6.954;2024-03-17T00:08:51;4.50;94.50
6270;DHT22;3168;51.684;6.954;2024-03-17T00:11:17;4.50;96.70
6270;DHT22;3168;51.684;6.954;2024-03-17T00:13:43;4.40;97.50
6270;DHT22;3168;51.684;6.954;2024-03-17T00:16:09;4.40;97.80
6270;DHT22;3168;51.684;6.954;2024-03-17T00:18:34;4.40;99.50
6270;DHT22;3168;51.684;6.954;2024-03-17T00:21:01;4.30;99.90
6270;DHT22;3168;51.684;6.954;2024-03-17T00:23:27;4.30;99.90
6270;DHT22;3168;51.684;6.954;2024-03-17T00:25:54;4.20;99.90
6270;DHT22;3168;51.684;6.954;2024-03-17T00:28:20;4.20;99.90
6270;DHT22;3168;51.684;6.954;2024-03-17T00:30:46;4.20;99.90
6270;DHT22;3168;51.684;6.954;2024-03-17T00:33:11;4.10;99.90
6270;DHT22;3168;51.684;6.954;2024-03-17T00:35:37;4.00;99.90
6270;DHT22;3168;51.684;6.954;2024-03-17T00:38:03;4.00;99.90
6270;DHT22;3168;51.684;6.954;2024-03-17T00:40:29;3.90;99.90
6270;DHT22;3168;51.684;6.954;2024-03-17T00:42:55;3.80;99.90
6270;DHT22;3168;51.684;6.954;2024-03-17T00:45:21;3.70;99.90
6270;DHT22;3168;51.684;6.954;2024-03-17T00:47:47;3.60;99.90
6270;DHT22;3168;51.684;6.954;2024-03-17T00:50:12;3.50;99.90
6270;DHT22;3168;51.684;6.954;2024-03-17T00:52:38;3.50;99.90
6270;DHT22;3168;51.684;6.954;2024-03-17T00:55:05;3.50;99.90
6270;DHT22;3168;51.684;6.954;2024-03-17T00:57:30;3.50;99.90
6270;DHT22;3168;51.684;6.954;2024-03-17T00:59:56;3.50;99.90
6270;DHT22;3168;51.684;6.954;2024-03-17T01:02:22;3.40;99.90
6270;DHT22;3168;51.684;6.954;2024-03-17T01:04:48;3.40;99.90
6270;DHT22;3168;51.684;6.954;2024-03-17T01:07:14;3.30;99.90
6270;DHT22;3168;51.684;6.954;2024-03-17T01:09:40;3.30;99.90
6270;DHT22;3168;51.684;6.954;2024-03-17T01:12:06;3.30;99.90
6270;DHT22;3168;51.684;6.954;2024-03-17T01:14:31;3.30;99.90
6270;DHT22;3168;51.684;6.954;2024-03-17T01:16:58;3.30;99.90
6270;DHT22;3168;51.684;6.954;2024-03-17T01:19:23;3.30;99.90
6270;DHT22;3168;51.684;6.954;2024-03-17T01:21:49;3.30;99.90
6270;DHT22;3168;51.684;6.954;2024-03-17T01:24:16;3.30;99.90
6270;DHT22;3168;51.684;6.954;2024-03-17T01:26:41;3.30;99.90
6270;DHT22;3168;51.684;6.954;2024-03-17T01:29:07;3.30;99.90
6270;DHT22;3168;51.684;6.954;2024-03-17T01:31:32;3.30;99.90
6270;DHT22;3168;51.684;6.954;2024-03-17T01:33:58;3.30;99.90
6270;DHT22;3168;51.684;6.954;2024-03-17T01:36:24;3.30;99.90
6270;DHT22;3168;51.684;6.954;2024-03-17T01:38:50;3.30;99.90
6270;DHT22;3168;51.684;6.954;2024-03-17T01:41:16;3.20;99.90
6270;DHT22;3168;51.684;6.954;2024-03-17T01:43:41;3.20;99.90
6270;DHT22;3168;51.684;6.954;2024-03-17T01:46:10;3.20;99.90
6270;DHT22;3168;51.684;6.954;2024-03-17T01:48:34;3.20;99.90
6270;DHT22;3168;51.684;6.954;2024-03-17T01:51:00;3.00;99.90
6270;DHT22;3168;51.684;6.954;2024-03-17T01:53:26;3.00;99.90
6270;DHT22;3168;51.684;6.954;2024-03-17T01:55:52;2.90;99.90
6270;DHT22;3168;51.684;6.954;2024-03-17T01:58:18;3.00;99.90
6270;DHT22;3168;51.684;6.954;2024-03-17T02:00:44;3.00;99.90
6270;DHT22;3168;51.684;6.954;2024-03-17T02:03:09;3.00;99.90
6270;DHT22;3168;51.684;6.954;2024-03-17T02:05:36;3.00;99.90
6270;DHT22;3168;51.684;6.954;2024-03-17T02:08:01;2.90;99.90
6270;DHT22;3168;51.684;6.954;2024-03-17T02:10:27;2.90;99.90
6270;DHT22;3168;51.684;6.954;2024-03-17T02:12:53;2.90;99.90
6270;DHT22;3168;51.684;6.954;2024-03-17T02:15:19;2.80;99.90
6270;DHT22;3168;51.684;6.954;2024-03-17T02:17:45;2.80;99.90
6270;DHT22;3168;51.684;6.954;2024-03-17T02:20:11;2.80;99.90
6270;DHT22;3168;51.684;6.954;2024-03-17T02:22:37;2.80;99.90
6270;DHT22;3168;51.684;6.954;2024-03-17T02:25:04;2.80;99.90
6270;DHT22;3168;51.684;6.954;2024-03-17T02:27:30;2.70;99.90
6270;DHT22;3168;51.684;6.954;2024-03-17T02:29:56;2.70;99.90
6270;DHT22;3168;51.684;6.954;2024-03-17T02:32:22;2.70;99.90
6270;DHT22;3168;51.684;6.954;2024-03-17T02:34:48;2.70;99.90
6270;DHT22;3168;51.684;6.954;2024-03-17T02:37:14;2.70;99.90
6270;DHT22;3168;51.684;6.954;2024-03-17T02:39:39;2.60;99.90
6270;DHT22;3168;51.684;6.954;2024-03-17T02:42:07;2.70;99.90
6270;DHT22;3168;51.684;6.954;2024-03-17T02:44:32;2.70;99.90
6270;DHT22;3168;51.684;6.954;2024-03-17T02:46:59;2.70;99.90
6270;DHT22;3168;51.684;6.954;2024-03-17T02:49:25;2.70;99.90
6270;DHT22;3168;51.684;6.954;2024-03-17T02:51:50;2.70;99.90
6270;DHT22;3168;51.684;6.954;2024-03-17T02:54:16;2.70;99.90
6270;DHT22;3168;51.684;6.954;2024-03-17T02:56:42;2.60;99.90
6270;DHT22;3168;51.684;6.954;2024-03-17T02:59:08;2.60;99.90
6270;DHT22;3168;51.684;6.954;2024-03-17T03:01:34;2.60;99.90
6270;DHT22;3168;51.684;6.954;2024-03-17T03:04:00;2.60;99.90
6270;DHT22;3168;51.684;6.954;2024-03-17T03:06:25;2.60;99.90
6270;DHT22;3168;51.684;6.954;2024-03-17T03:08:51;2.60;99.90
6270;DHT22;3168;51.684;6.954;2024-03-17T03:11:17;2.60;99.90
6270;DHT22;3168;51.684;6.954;2024-03-17T03:13:43;2.50;99.90
6270;DHT22;3168;51.684;6.954;2024-03-17T03:16:10;2.50;99.90
6270;DHT22;3168;51.684;6.954;2024-03-17T03:18:36;2.40;99.90
6270;DHT22;3168;51.684;6.954;2024-03-17T03:21:02;2.40;99.90
6270;DHT22;3168;51.684;6.954;2024-03-17T03:23:27;2.40;99.90
6270;DHT22;3168;51.684;6.954;2024-03-17T03:25:54;2.30;99.90
6270;DHT22;3168;51.684;6.954;2024-03-17T03:28:20;2.30;99.90
6270;DHT22;3168;51.684;6.954;2024-03-17T03:30:46;2.30;99.90
6270;DHT22;3168;51.684;6.954;2024-03-17T03:33:11;2.30;99.90
6270;DHT22;3168;51.684;6.954;2024-03-17T03:35:37;2.30;99.90
6270;DHT22;3168;51.684;6.954;2024-03-17T03:38:03;2.30;99.90
6270;DHT22;3168;51.684;6.954;2024-03-17T03:40:30;2.40;99.90
6270;DHT22;3168;51.684;6.954;2024-03-17T03:42:56;2.30;99.90
6270;DHT22;3168;51.684;6.954;2024-03-17T03:45:22;2.40;99.90
6270;DHT22;3168;51.684;6.954;2024-03-17T03:47:47;2.40;99.90
6270;DHT22;3168;51.684;6.954;2024-03-17T03:50:15;2.30;99.90
6270;DHT22;3168;51.684;6.954;2024-03-17T03:52:39;2.30;99.90
6270;DHT22;3168;51.684;6.954;2024-03-17T03:55:06;2.30;99.90
6270;DHT22;3168;51.684;6.954;2024-03-17T03:57:33;2.30;99.90
6270;DHT22;3168;51.684;6.954;2024-03-17T03:59:59;2.30;99.90
6270;DHT22;3168;51.684;6.954;2024-03-17T04:02:24;2.30;99.90
6270;DHT22;3168;51.684;6.954;2024-03-17T04:04:50;2.30;99.90
6270;DHT22;3168;51.684;6.954;2024-03-17T04:07:16;2.30;99.90
6270;DHT22;3168;51.684;6.954;2024-03-17T04:09:42;2.30;99.90
6270;DHT22;3168;51.684;6.954;2024-03-17T04:12:08;2.30;99.90
6270;DHT22;3168;51.684;6.954;2024-03-17T04:14:34;2.30;99.90
6270;DHT22;3168;51.684;6.954;2024-03-17T04:17:00;2.30;99.90
6270;DHT22;3168;51.684;6.954;2024-03-17T04:19:25;2.30;99.90
6270;DHT22;3168;51.684;6.954;2024-03-17T04:21:51;2.30;99.90
6270;DHT22;3168;51.684;6.954;2024-03-17T04:24:17;2.30;99.90
6270;DHT22;3168;51.684;6.954;2024-03-17T04:26:43;2.30;99.90
6270;DHT22;3168;51.684;6.954;2024-03-17T04:29:09;2.40;99.90
6270;DHT22;3168;51.684;6.954;2024-03-17T04:31:35;2.30;99.90
6270;DHT22;3168;51.684;6.954;2024-03-17T04:34:00;2.30;99.90
6270;DHT22;3168;51.684;6.954;2024-03-17T04:36:26;2.30;99.90
6270;DHT22;3168;51.684;6.954;2024-03-17T04:38:52;2.40;99.90
6270;DHT22;3168;51.684;6.954;2024-03-17T04:41:25;2.40;99.90
6270;DHT22;3168;51.684;6.954;2024-03-17T04:43:51;2.40;99.90
6270;DHT22;3168;51.684;6.954;2024-03-17T04:46:16;2.40;99.90
6270;DHT22;3168;51.684;6.954;2024-03-17T04:48:42;2.50;99.90
6270;DHT22;3168;51.684;6.954;2024-03-17T04:51:14;2.50;99.90
6270;DHT22;3168;51.684;6.954;2024-03-17T04:53:35;2.50;99.90
6270;DHT22;3168;51.684;6.954;2024-03-17T04:56:01;2.50;99.90
6270;DHT22;3168;51.684;6.954;2024-03-17T04:58:26;2.50;99.90
6270;DHT22;3168;51.684;6.954;2024-03-17T05:00:52;2.50;99.90
6270;DHT22;3168;51.684;6.954;2024-03-17T05:03:18;2.50;99.90
6270;DHT22;3168;51.684;6.954;2024-03-17T05:05:44;2.50;99.90
6270;DHT22;3168;51.684;6.954;2024-03-17T05:08:10;2.40;99.90
6270;DHT22;3168;51.684;6.954;2024-03-17T05:10:36;2.40;99.90
6270;DHT22;3168;51.684;6.954;2024-03-17T05:13:01;2.40;99.90
6270;DHT22;3168;51.684;6.954;2024-03-17T05:15:27;2.50;99.90
6270;DHT22;3168;51.684;6.954;2024-03-17T05:17:53;2.40;99.90
6270;DHT22;3168;51.684;6.954;2024-03-17T05:20:19;2.40;99.90
6270;DHT22;3168;51.684;6.954;2024-03-17T05:22:45;2.50;99.90
6270;DHT22;3168;51.684;6.954;2024-03-17T05:25:10;2.50;99.90
6270;DHT22;3168;51.684;6.954;2024-03-17T05:27:37;2.50;99.90
6270;DHT22;3168;51.684;6.954;2024-03-17T05:30:03;2.40;99.90
6270;DHT22;3168;51.684;6.954;2024-03-17T05:32:29;2.50;99.90
6270;DHT22;3168;51.684;6.954;2024-03-17T05:34:55;2.50;99.90
6270;DHT22;3168;51.684;6.954;2024-03-17T05:37:21;2.50;99.90
6270;DHT22;3168;51.684;6.954;2024-03-17T05:39:47;2.50;99.90
6270;DHT22;3168;51.684;6.954;2024-03-17T05:42:13;2.50;99.90
6270;DHT22;3168;51.684;6.954;2024-03-17T05:44:39;2.50;99.90
6270;DHT22;3168;51.684;6.954;2024-03-17T05:47:05;2.50;99.90
6270;DHT22;3168;51.684;6.954;2024-03-17T05:49:31;2.50;99.90
6270;DHT22;3168;51.684;6.954;2024-03-17T05:51:56;2.50;99.90
6270;DHT22;3168;51.684;6.954;2024-03-17T05:54:22;2.50;99.90
6270;DHT22;3168;51.684;6.954;2024-03-17T05:56:48;2.60;99.90
6270;DHT22;3168;51.684;6.954;2024-03-17T05:59:14;2.60;99.90
6270;DHT22;3168;51.684;6.954;2024-03-17T06:01:39;2.70;99.90
6270;DHT22;3168;51.684;6.954;2024-03-17T06:04:05;2.70;99.90
6270;DHT22;3168;51.684;6.954;2024-03-17T06:06:31;2.80;99.90
6270;DHT22;3168;51.684;6.954;2024-03-17T06:08:57;2.80;99.90
6270;DHT22;3168;51.684;6.954;2024-03-17T06:11:23;3.00;99.90
6270;DHT22;3168;51.684;6.954;2024-03-17T06:13:48;3.00;99.90
6270;DHT22;3168;51.684;6.954;2024-03-17T06:16:15;3.10;99.90
6270;DHT22;3168;51.684;6.954;2024-03-17T06:18:41;3.10;99.90
6270;DHT22;3168;51.684;6.954;2024-03-17T06:21:07;3.20;99.90
6270;DHT22;3168;51.684;6.954;2024-03-17T06:23:33;3.30;99.90
6270;DHT22;3168;51.684;6.954;2024-03-17T06:25:58;3.40;99.90
6270;DHT22;3168;51.684;6.954;2024-03-17T06:28:24;3.40;99.90
6270;DHT22;3168;51.684;6.954;2024-03-17T06:30:55;3.50;99.90
6270;DHT22;3168;51.684;6.954;2024-03-17T06:33:20;3.60;99.90
6270;DHT22;3168;51.684;6.954;2024-03-17T06:35:46;3.70;99.90
6270;DHT22;3168;51.684;6.954;2024-03-17T06:38:13;3.80;99.90
6270;DHT22;3168;51.684;6.954;2024-03-17T06:40:38;4.00;99.90
6270;DHT22;3168;51.684;6.954;2024-03-17T06:43:04;4.10;99.90
6270;DHT22;3168;51.684;6.954;2024-03-17T06:45:30;4.20;99.90
6270;DHT22;3168;51.684;6.954;2024-03-17T06:47:57;4.40;99.90
6270;DHT22;3168;51.684;6.954;2024-03-17T06:50:22;4.30;99.90
6270;DHT22;3168;51.684;6.954;2024-03-17T06:52:48;4.40;99.90
6270;DHT22;3168;51.684;6.954;2024-03-17T06:55:14;4.40;99.90
6270;DHT22;3168;51.684;6.954;2024-03-17T06:57:42;4.60;99.90
6270;DHT22;3168;51.684;6.954;2024-03-17T07:00:12;4.60;99.00
6270;DHT22;3168;51.684;6.954;2024-03-17T07:02:38;4.70;95.70
6270;DHT22;3168;51.684;6.954;2024-03-17T07:05:04;4.80;91.30
6270;DHT22;3168;51.684;6.954;2024-03-17T07:07:30;4.80;87.00
6270;DHT22;3168;51.684;6.954;2024-03-17T07:09:56;4.90;82.50
6270;DHT22;3168;51.684;6.954;2024-03-17T07:12:22;5.00;74.70
6270;DHT22;3168;51.684;6.954;2024-03-17T07:14:50;5.10;57.40
6270;DHT22;3168;51.684;6.954;2024-03-17T07:17:15;5.20;57.50
6270;DHT22;3168;51.684;6.954;2024-03-17T07:19:42;5.40;60.20
6270;DHT22;3168;51.684;6.954;2024-03-17T07:22:08;5.40;57.50
6270;DHT22;3168;51.684;6.954;2024-03-17T07:24:34;5.50;61.90
6270;DHT22;3168;51.684;6.954;2024-03-17T07:27:00;5.60;57.70
6270;DHT22;3168;51.684;6.954;2024-03-17T07:29:26;5.80;51.80
6270;DHT22;3168;51.684;6.954;2024-03-17T07:31:52;5.80;43.80
6270;DHT22;3168;51.684;6.954;2024-03-17T07:34:18;5.90;36.40
6270;DHT22;3168;51.684;6.954;2024-03-17T07:36:45;6.00;25.40
6270;DHT22;3168;51.684;6.954;2024-03-17T07:39:10;6.10;23.90
6270;DHT22;3168;51.684;6.954;2024-03-17T07:41:35;6.20;19.40
6270;DHT22;3168;51.684;6.954;2024-03-17T07:44:01;6.20;18.50
6270;DHT22;3168;51.684;6.954;2024-03-17T07:46:27;6.20;12.10
6270;DHT22;3168;51.684;6.954;2024-03-17T07:48:53;6.30;10.80
6270;DHT22;3168;51.684;6.954;2024-03-17T07:51:19;6.30;11.40
6270;DHT22;3168;51.684;6.954;2024-03-17T07:53:45;6.40;10.90
6270;DHT22;3168;51.684;6.954;2024-03-17T07:56:11;6.40;10.70
6270;DHT22;3168;51.684;6.954;2024-03-17T07:58:37;6.50;10.80
6270;DHT22;3168;51.684;6.954;2024-03-17T08:01:03;6.60;7.00
6270;DHT22;3168;51.684;6.954;2024-03-17T08:03:30;6.60;1.00
6270;DHT22;3168;51.684;6.954;2024-03-17T08:05:55;6.80;2.20
6270;DHT22;3168;51.684;6.954;2024-03-17T08:08:21;6.90;1.00
6270;DHT22;3168;51.684;6.954;2024-03-17T08:10:48;7.20;1.00
6270;DHT22;3168;51.684;6.954;2024-03-17T08:13:14;7.20;1.00
6270;DHT22;3168;51.684;6.954;2024-03-17T08:15:40;7.30;1.00
6270;DHT22;3168;51.684;6.954;2024-03-17T08:18:06;7.40;1.00
6270;DHT22;3168;51.684;6.954;2024-03-17T08:20:31;7.50;1.00
6270;DHT22;3168;51.684;6.954;2024-03-17T08:22:57;7.60;1.00
6270;DHT22;3168;51.684;6.954;2024-03-17T08:25:23;7.70;1.00
6270;DHT22;3168;51.684;6.954;2024-03-17T08:27:49;7.80;1.00
6270;DHT22;3168;51.684;6.954;2024-03-17T08:30:15;7.70;1.00
6270;DHT22;3168;51.684;6.954;2024-03-17T08:32:40;7.70;1.00
6270;DHT22;3168;51.684;6.954;2024-03-17T08:35:07;7.80;1.00
6270;DHT22;3168;51.684;6.954;2024-03-17T08:37:35;7.90;1.00
6270;DHT22;3168;51.684;6.954;2024-03-17T08:39:59;7.90;1.00
6270;DHT22;3168;51.684;6.954;2024-03-17T08:42:25;8.00;1.00
6270;DHT22;3168;51.684;6.954;2024-03-17T08:44:51;8.10;1.00
6270;DHT22;3168;51.684;6.954;2024-03-17T08:47:17;8.20;1.00
6270;DHT22;3168;51.684;6.954;2024-03-17T08:49:43;8.30;1.00
6270;DHT22;3168;51.684;6.954;2024-03-17T08:52:09;8.40;1.00
6270;DHT22;3168;51.684;6.954;2024-03-17T08:54:35;8.40;1.00
6270;DHT22;3168;51.684;6.954;2024-03-17T08:57:01;8.60;1.00
6270;DHT22;3168;51.684;6.954;2024-03-17T08:59:26;8.70;1.00
6270;DHT22;3168;51.684;6.954;2024-03-17T09:01:52;8.80;1.00
6270;DHT22;3168;51.684;6.954;2024-03-17T09:04:18;8.90;1.00
6270;DHT22;3168;51.684;6.954;2024-03-17T09:06:44;9.00;1.00
6270;DHT22;3168;51.684;6.954;2024-03-17T09:09:10;9.20;1.00
6270;DHT22;3168;51.684;6.954;2024-03-17T09:11:36;9.30;1.00
6270;DHT22;3168;51.684;6.954;2024-03-17T09:14:02;9.50;1.00
6270;DHT22;3168;51.684;6.954;2024-03-17T09:16:28;9.60;1.00
6270;DHT22;3168;51.684;6.954;2024-03-17T09:18:53;9.60;1.00
6270;DHT22;3168;51.684;6.954;2024-03-17T09:21:19;9.70;1.00
6270;DHT22;3168;51.684;6.954;2024-03-17T09:23:45;9.90;1.00
6270;DHT22;3168;51.684;6.954;2024-03-17T09:26:11;9.90;1.00
6270;DHT22;3168;51.684;6.954;2024-03-17T09:28:37;10.10;1.00
6270;DHT22;3168;51.684;6.954;2024-03-17T09:31:03;10.20;1.00
6270;DHT22;3168;51.684;6.954;2024-03-17T09:33:29;10.40;1.00
6270;DHT22;3168;51.684;6.954;2024-03-17T09:36:00;10.60;1.00
6270;DHT22;3168;51.684;6.954;2024-03-17T09:38:26;10.80;1.00
6270;DHT22;3168;51.684;6.954;2024-03-17T09:40:52;10.90;1.00
6270;DHT22;3168;51.684;6.954;2024-03-17T09:43:20;10.80;1.00
6270;DHT22;3168;51.684;6.954;2024-03-17T09:45:45;10.90;1.00
6270;DHT22;3168;51.684;6.954;2024-03-17T09:48:13;10.90;1.00
6270;DHT22;3168;51.684;6.954;2024-03-17T09:50:37;10.90;1.00
6270;DHT22;3168;51.684;6.954;2024-03-17T09:53:03;11.00;1.00
6270;DHT22;3168;51.684;6.954;2024-03-17T09:55:29;10.90;1.00
6270;DHT22;3168;51.684;6.954;2024-03-17T09:57:55;10.80;1.00
6270;DHT22;3168;51.684;6.954;2024-03-17T10:00:20;11.00;1.00
6270;DHT22;3168;51.684;6.954;2024-03-17T10:02:46;11.00;1.00
6270;DHT22;3168;51.684;6.954;2024-03-17T10:05:20;11.20;1.00
6270;DHT22;3168;51.684;6.954;2024-03-17T10:07:46;11.20;1.00
6270;DHT22;3168;51.684;6.954;2024-03-17T10:10:12;11.20;1.00
6270;DHT22;3168;51.684;6.954;2024-03-17T10:12:38;11.20;1.00
6270;DHT22;3168;51.684;6.954;2024-03-17T10:15:05;11.20;1.00
6270;DHT22;3168;51.684;6.954;2024-03-17T10:17:32;11.40;1.00
6270;DHT22;3168;51.684;6.954;2024-03-17T10:20:18;11.60;1.00
6270;DHT22;3168;51.684;6.954;2024-03-17T10:25:21;11.90;1.00
6270;DHT22;3168;51.684;6.954;2024-03-17T10:27:47;12.00;1.00
6270;DHT22;3168;51.684;6.954;2024-03-17T10:30:17;12.00;1.00
6270;DHT22;3168;51.684;6.954;2024-03-17T10:32:39;12.00;1.00
6270;DHT22;3168;51.684;6.954;2024-03-17T10:35:06;12.10;1.00
6270;DHT22;3168;51.684;6.954;2024-03-17T10:37:31;12.10;1.00
6270;DHT22;3168;51.684;6.954;2024-03-17T10:39:57;12.30;1.00
6270;DHT22;3168;51.684;6.954;2024-03-17T10:42:25;12.40;1.00
6270;DHT22;3168;51.684;6.954;2024-03-17T10:44:51;12.50;1.00
6270;DHT22;3168;51.684;6.954;2024-03-17T10:47:25;12.50;1.00
6270;DHT22;3168;51.684;6.954;2024-03-17T10:49:51;12.40;1.00
6270;DHT22;3168;51.684;6.954;2024-03-17T10:52:17;12.40;1.00
6270;DHT22;3168;51.684;6.954;2024-03-17T10:54:48;12.60;1.00
6270;DHT22;3168;51.684;6.954;2024-03-17T10:59:53;13.10;1.00
6270;DHT22;3168;51.684;6.954;2024-03-17T11:02:21;13.10;1.00
6270;DHT22;3168;51.684;6.954;2024-03-17T11:04:46;13.20;1.00
6270;DHT22;3168;51.684;6.954;2024-03-17T11:07:15;13.10;1.00
6270;DHT22;3168;51.684;6.954;2024-03-17T11:09:38;13.00;1.00
6270;DHT22;3168;51.684;6.954;2024-03-17T11:12:04;13.10;1.00
6270;DHT22;3168;51.684;6.954;2024-03-17T11:14:30;13.10;1.00
6270;DHT22;3168;51.684;6.954;2024-03-17T11:16:56;13.10;1.00
6270;DHT22;3168;51.684;6.954;2024-03-17T11:19:22;13.10;1.00
6270;DHT22;3168;51.684;6.954;2024-03-17T11:21:48;13.10;1.00
6270;DHT22;3168;51.684;6.954;2024-03-17T11:24:20;13.20;1.00
6270;DHT22;3168;51.684;6.954;2024-03-17T11:26:45;13.00;1.00
6270;DHT22;3168;51.684;6.954;2024-03-17T11:29:26;12.90;1.00
6270;DHT22;3168;51.684;6.954;2024-03-17T11:31:49;12.90;1.00
6270;DHT22;3168;51.684;6.954;2024-03-17T11:34:27;13.00;1.00
6270;DHT22;3168;51.684;6.954;2024-03-17T11:36:52;12.90;1.00
6270;DHT22;3168;51.684;6.954;2024-03-17T11:39:18;12.90;1.00
6270;DHT22;3168;51.684;6.954;2024-03-17T11:41:54;13.00;1.00
6270;DHT22;3168;51.684;6.954;2024-03-17T11:44:27;13.00;1.00
6270;DHT22;3168;51.684;6.954;2024-03-17T11:46:58;12.90;1.00
6270;DHT22;3168;51.684;6.954;2024-03-17T11:49:27;13.20;1.00
6270;DHT22;3168;51.684;6.954;2024-03-17T11:51:51;13.40;1.00
6270;DHT22;3168;51.684;6.954;2024-03-17T11:54:19;13.50;1.00
6270;DHT22;3168;51.684;6.954;2024-03-17T11:56:47;13.30;1.00
6270;DHT22;3168;51.684;6.954;2024-03-17T11:59:11;13.50;1.00
6270;DHT22;3168;51.684;6.954;2024-03-17T12:01:38;13.50;1.00
6270;DHT22;3168;51.684;6.954;2024-03-17T12:04:04;13.40;1.00
6270;DHT22;3168;51.684;6.954;2024-03-17T12:06:31;13.50;1.00
6270;DHT22;3168;51.684;6.954;2024-03-17T12:09:17;13.70;1.00
6270;DHT22;3168;51.684;6.954;2024-03-17T12:11:43;14.00;1.00
6270;DHT22;3168;51.684;6.954;2024-03-17T12:14:18;13.90;1.00
6270;DHT22;3168;51.684;6.954;2024-03-17T12:16:47;14.00;1.00
6270;DHT22;3168;51.684;6.954;2024-03-17T12:19:12;14.10;1.00
6270;DHT22;3168;51.684;6.954;2024-03-17T12:21:40;14.00;1.00
6270;DHT22;3168;51.684;6.954;2024-03-17T12:24:08;14.00;1.00
6270;DHT22;3168;51.684;6.954;2024-03-17T12:26:30;14.10;1.00
6270;DHT22;3168;51.684;6.954;2024-03-17T12:28:56;14.20;1.00
6270;DHT22;3168;51.684;6.954;2024-03-17T12:31:22;14.20;1.00
6270;DHT22;3168;51.684;6.954;2024-03-17T12:33:48;14.10;1.00
6270;DHT22;3168;51.684;6.954;2024-03-17T12:36:13;14.10;1.00
6270;DHT22;3168;51.684;6.954;2024-03-17T12:38:39;14.00;1.00
6270;DHT22;3168;51.684;6.954;2024-03-17T12:41:15;13.90;1.00
6270;DHT22;3168;51.684;6.954;2024-03-17T12:43:31;14.00;1.00
6270;DHT22;3168;51.684;6.954;2024-03-17T12:45:57;14.00;1.00
6270;DHT22;3168;51.684;6.954;2024-03-17T12:48:23;14.00;1.00
6270;DHT22;3168;51.684;6.954;2024-03-17T12:50:49;14.10;1.00
6270;DHT22;3168;51.684;6.954;2024-03-17T12:53:16;14.20;1.00
6270;DHT22;3168;51.684;6.954;2024-03-17T12:55:41;14.40;1.00
6270;DHT22;3168;51.684;6.954;2024-03-17T12:58:13;14.60;1.00
6270;DHT22;3168;51.684;6.954;2024-03-17T13:00:45;14.70;1.00
6270;DHT22;3168;51.684;6.954;2024-03-17T13:03:21;14.90;1.00
6270;DHT22;3168;51.684;6.954;2024-03-17T13:05:37;14.70;1.00
6270;DHT22;3168;51.684;6.954;2024-03-17T13:08:04;14.60;1.00
6270;DHT22;3168;51.684;6.954;2024-03-17T13:10:30;14.50;1.00
6270;DHT22;3168;51.684;6.954;2024-03-17T13:13:00;14.50;1.00
6270;DHT22;3168;51.684;6.954;2024-03-17T13:15:23;14.50;1.00
6270;DHT22;3168;51.684;6.954;2024-03-17T13:17:49;14.60;1.00
6270;DHT22;3168;51.684;6.954;2024-03-17T13:20:16;14.70;1.00
6270;DHT22;3168;51.684;6.954;2024-03-17T13:22:43;14.90;1.00
6270;DHT22;3168;51.684;6.954;2024-03-17T13:25:09;15.00;1.00
6270;DHT22;3168;51.684;6.954;2024-03-17T13:27:35;15.10;1.00
6270;DHT22;3168;51.684;6.954;2024-03-17T13:30:00;15.10;1.00
6270;DHT22;3168;51.684;6.954;2024-03-17T13:32:26;15.20;1.00
6270;DHT22;3168;51.684;6.954;2024-03-17T13:34:52;15.20;1.00
6270;DHT22;3168;51.684;6.954;2024-03-17T13:37:18;15.00;1.00
6270;DHT22;3168;51.684;6.954;2024-03-17T13:39:44;15.00;1.00
6270;DHT22;3168;51.684;6.954;2024-03-17T13:42:09;15.10;1.00
6270;DHT22;3168;51.684;6.954;2024-03-17T13:44:35;15.00;1.00
6270;DHT22;3168;51.684;6.954;2024-03-17T13:47:01;14.90;1.00
6270;DHT22;3168;51.684;6.954;2024-03-17T13:49:27;14.80;1.00
6270;DHT22;3168;51.684;6.954;2024-03-17T13:51:53;14.70;1.00
6270;DHT22;3168;51.684;6.954;2024-03-17T13:54:19;14.60;1.00
6270;DHT22;3168;51.684;6.954;2024-03-17T13:56:47;14.60;1.00
6270;DHT22;3168;51.684;6.954;2024-03-17T13:59:12;14.60;1.00
6270;DHT22;3168;51.684;6.954;2024-03-17T14:01:38;14.60;1.00
6270;DHT22;3168;51.684;6.954;2024-03-17T14:04:04;14.60;1.00
6270;DHT22;3168;51.684;6.954;2024-03-17T14:06:30;14.60;1.00
6270;DHT22;3168;51.684;6.954;2024-03-17T14:08:56;14.50;1.00
6270;DHT22;3168;51.684;6.954;2024-03-17T14:11:22;14.50;1.00
6270;DHT22;3168;51.684;6.954;2024-03-17T14:13:48;14.60;1.00
6270;DHT22;3168;51.684;6.954;2024-03-17T14:16:13;14.40;1.00
6270;DHT22;3168;51.684;6.954;2024-03-17T14:18:39;14.20;1.00
6270;DHT22;3168;51.684;6.954;2024-03-17T14:21:05;14.20;1.00
6270;DHT22;3168;51.684;6.954;2024-03-17T14:23:31;14.20;1.00
6270;DHT22;3168;51.684;6.954;2024-03-17T14:25:57;14.20;1.00
6270;DHT22;3168;51.684;6.954;2024-03-17T14:28:23;14.30;1.00
6270;DHT22;3168;51.684;6.954;2024-03-17T14:30:49;14.30;1.00
6270;DHT22;3168;51.684;6.954;2024-03-17T14:33:15;14.30;1.00
6270;DHT22;3168;51.684;6.954;2024-03-17T14:35:41;14.30;1.00
6270;DHT22;3168;51.684;6.954;2024-03-17T14:38:07;14.30;1.00
6270;DHT22;3168;51.684;6.954;2024-03-17T14:40:33;14.30;1.00
6270;DHT22;3168;51.684;6.954;2024-03-17T14:42:59;14.30;1.00
6270;DHT22;3168;51.684;6.954;2024-03-17T14:45:24;14.40;1.00
6270;DHT22;3168;51.684;6.954;2024-03-17T14:47:50;14.30;1.00
6270;DHT22;3168;51.684;6.954;2024-03-17T14:50:16;14.30;1.00
6270;DHT22;3168;51.684;6.954;2024-03-17T14:52:42;14.30;1.00
6270;DHT22;3168;51.684;6.954;2024-03-17T14:55:09;14.30;1.00
6270;DHT22;3168;51.684;6.954;2024-03-17T14:57:36;14.20;1.00
6270;DHT22;3168;51.684;6.954;2024-03-17T15:00:01;14.20;1.00
6270;DHT22;3168;51.684;6.954;2024-03-17T15:02:27;14.20;1.00
6270;DHT22;3168;51.684;6.954;2024-03-17T15:04:53;14.10;1.00
6270;DHT22;3168;51.684;6.954;2024-03-17T15:07:19;14.10;1.00
6270;DHT22;3168;51.684;6.954;2024-03-17T15:09:45;14.10;1.00
6270;DHT22;3168;51.684;6.954;2024-03-17T15:12:11;14.10;1.00
6270;DHT22;3168;51.684;6.954;2024-03-17T15:14:37;14.10;1.00
6270;DHT22;3168;51.684;6.954;2024-03-17T15:17:03;14.00;1.00
6270;DHT22;3168;51.684;6.954;2024-03-17T15:19:29;14.00;1.00
6270;DHT22;3168;51.684;6.954;2024-03-17T15:21:54;14.00;1.00
6270;DHT22;3168;51.684;6.954;2024-03-17T15:24:21;13.90;1.00
6270;DHT22;3168;51.684;6.954;2024-03-17T15:26:47;13.90;1.00
6270;DHT22;3168;51.684;6.954;2024-03-17T15:29:13;13.90;1.00
6270;DHT22;3168;51.684;6.954;2024-03-17T15:31:39;13.80;1.00
6270;DHT22;3168;51.684;6.954;2024-03-17T15:34:05;13.70;1.00
6270;DHT22;3168;51.684;6.954;2024-03-17T15:36:31;13.80;1.00
6270;DHT22;3168;51.684;6.954;2024-03-17T15:38:57;13.70;1.00
6270;DHT22;3168;51.684;6.954;2024-03-17T15:41:23;13.80;1.00
6270;DHT22;3168;51.684;6.954;2024-03-17T15:43:48;13.80;1.00
6270;DHT22;3168;51.684;6.954;2024-03-17T15:46:16;13.70;1.00
6270;DHT22;3168;51.684;6.954;2024-03-17T15:48:40;13.80;1.00
6270;DHT22;3168;51.684;6.954;2024-03-17T15:51:06;13.80;1.00
6270;DHT22;3168;51.684;6.954;2024-03-17T15:53:32;13.80;1.00
6270;DHT22;3168;51.684;6.954;2024-03-17T15:55:58;13.80;1.00
6270;DHT22;3168;51.684;6.954;2024-03-17T15:58:24;13.80;1.00
6270;DHT22;3168;51.684;6.954;2024-03-17T16:00:49;13.80;1.00
6270;DHT22;3168;51.684;6.954;2024-03-17T16:03:15;13.90;1.00
6270;DHT22;3168;51.684;6.954;2024-03-17T16:05:43;13.90;1.00
6270;DHT22;3168;51.684;6.954;2024-03-17T16:08:09;13.90;1.00
6270;DHT22;3168;51.684;6.954;2024-03-17T16:10:35;14.00;1.00
6270;DHT22;3168;51.684;6.954;2024-03-17T16:13:01;14.00;1.00
6270;DHT22;3168;51.684;6.954;2024-03-17T16:15:27;14.00;1.00
6270;DHT22;3168;51.684;6.954;2024-03-17T16:17:53;14.10;1.00